createdAt,value
2018-01-23T00:01:18.342Z,99860.45
2018-01-23T00:03:46.738Z,99879.53
2018-01-23T00:06:15.140Z,99881.81
2018-01-23T00:08:43.594Z,99881.30
2018-01-23T00:11:12.015Z,99890.45
2018-01-23T00:13:40.451Z,99894.56
2018-01-23T00:16:08.898Z,99895.21
2018-01-23T00:18:37.293Z,99903.75
2018-01-23T00:21:05.724Z,99902.98
2018-01-23T00:23:34.207Z,99905.23
2018-01-23T00:26:02.605Z,99913.92
2018-01-23T00:28:31.010Z,99925.18
2018-01-23T00:30:59.445Z,99931.08
2018-01-23T00:33:27.837Z,99935.88
2018-01-23T00:35:56.260Z,99946.90
2018-01-23T00:38:24.731Z,99944.44
2018-01-23T00:40:53.163Z,99945.08
2018-01-23T00:43:21.572Z,99954.08
2018-01-23T00:45:50.023Z,99960.77
2018-01-23T00:48:18.455Z,99958.30
2018-01-23T00:50:46.913Z,99959.56
2018-01-23T00:53:15.373Z,99962.95
2018-01-23T00:55:43.778Z,99961.55
2018-01-23T00:58:12.190Z,99965.73
2018-01-23T01:00:40.652Z,99974.52
2018-01-23T01:03:09.045Z,99976.03
2018-01-23T01:05:37.433Z,99982.92
2018-01-23T01:08:05.866Z,99981.80
2018-01-23T01:10:35.066Z,99977.13
2018-01-23T01:13:03.453Z,99989.24
2018-01-23T01:15:31.924Z,99984.91
2018-01-23T01:18:00.361Z,99990.17
2018-01-23T01:20:28.800Z,99989.53
2018-01-23T01:22:57.237Z,99996.99
2018-01-23T01:25:25.631Z,99993.51
2018-01-23T01:27:54.054Z,100001.26
2018-01-23T01:30:22.522Z,100008.16
2018-01-23T01:32:50.946Z,100012.63
2018-01-23T01:35:19.365Z,100002.48
2018-01-23T01:37:47.836Z,100002.33
2018-01-23T01:40:16.270Z,100016.89
2018-01-23T01:42:44.702Z,100018.77
2018-01-23T01:45:13.158Z,100018.22
2018-01-23T01:47:41.586Z,100021.18
2018-01-23T01:50:09.990Z,100026.77
2018-01-23T01:52:38.446Z,100027.30
2018-01-23T01:55:06.873Z,100030.20
2018-01-23T01:57:35.307Z,100038.09
2018-01-23T02:00:03.770Z,100041.42
2018-01-23T02:02:32.202Z,100039.39
2018-01-23T02:05:00.632Z,100044.02
2018-01-23T02:07:29.074Z,100044.44
2018-01-23T02:09:57.502Z,100042.20
2018-01-23T02:12:25.943Z,100044.98
2018-01-23T02:14:54.405Z,100045.58
2018-01-23T02:17:22.797Z,100042.15
2018-01-23T02:19:51.217Z,100053.78
2018-01-23T02:22:19.678Z,100054.20
2018-01-23T02:24:48.087Z,100056.05
2018-01-23T02:27:16.517Z,100061.24
2018-01-23T02:29:44.949Z,100060.43
2018-01-23T02:32:13.357Z,100070.48
2018-01-23T02:34:41.765Z,100076.30
2018-01-23T02:37:10.215Z,100071.77
2018-01-23T02:39:38.648Z,100077.33
2018-01-23T02:42:07.091Z,100077.18
2018-01-23T02:44:35.549Z,100075.52
2018-01-23T02:47:03.954Z,100077.13
2018-01-23T02:49:32.354Z,100079.23
2018-01-23T02:52:00.823Z,100081.11
2018-01-23T02:54:29.245Z,100082.15
2018-01-23T02:56:57.669Z,100089.01
2018-01-23T02:59:26.132Z,100084.90
2018-01-23T03:01:54.530Z,100095.30
2018-01-23T03:04:22.943Z,100099.57
2018-01-23T03:06:51.386Z,100100.52
2018-01-23T03:09:19.810Z,100108.37
2018-01-23T03:11:48.209Z,100110.55
2018-01-23T03:14:16.658Z,100119.90
2018-01-23T03:16:45.059Z,100116.05
2018-01-23T03:19:13.497Z,100126.84
2018-01-23T03:21:41.950Z,100127.42
2018-01-23T03:24:10.363Z,100143.78
2018-01-23T03:26:38.798Z,100143.05
2018-01-23T03:29:07.229Z,100140.80
2018-01-23T03:31:35.653Z,100150.70
2018-01-23T03:34:04.090Z,100157.88
2018-01-23T03:36:32.545Z,100162.64
2018-01-23T03:39:00.961Z,100168.61
2018-01-23T03:41:29.385Z,100169.02
2018-01-23T03:43:57.834Z,100168.66
2018-01-23T03:46:26.289Z,100168.66
2018-01-23T03:48:54.716Z,100174.58
2018-01-23T03:51:23.162Z,100173.55
2018-01-23T03:53:51.589Z,100177.30
2018-01-23T03:56:19.990Z,100175.83
2018-01-23T03:58:48.447Z,100183.32
2018-01-23T04:01:16.869Z,100187.77
2018-01-23T04:03:45.291Z,100188.67
2018-01-23T04:06:13.758Z,100201.89
2018-01-23T04:08:42.163Z,100193.22
2018-01-23T04:11:10.568Z,100200.14
2018-01-23T04:13:39.017Z,100200.97
2018-01-23T04:16:07.452Z,100201.72
2018-01-23T04:18:35.858Z,100207.73
2018-01-23T04:21:04.295Z,100204.28
2018-01-23T04:23:32.725Z,100213.16
2018-01-23T04:26:01.126Z,100214.89
2018-01-23T04:28:29.578Z,100218.66
2018-01-23T04:30:57.996Z,100216.34
2018-01-23T04:33:26.426Z,100225.75
2018-01-23T04:35:54.896Z,100224.92
2018-01-23T04:38:23.309Z,100231.18
2018-01-23T04:40:51.729Z,100235.83
2018-01-23T04:43:20.174Z,100233.25
2018-01-23T04:45:48.597Z,100232.63
2018-01-23T04:48:17.024Z,100233.37
2018-01-23T04:50:45.477Z,100236.44
2018-01-23T04:53:13.894Z,100239.88
2018-01-23T04:55:42.293Z,100244.08
2018-01-23T04:58:10.733Z,100246.15
2018-01-23T05:00:39.168Z,100244.03
2018-01-23T05:03:07.594Z,100251.20
2018-01-23T05:05:36.064Z,100251.13
2018-01-23T05:08:04.489Z,100255.36
2018-01-23T05:10:32.917Z,100261.20
2018-01-23T05:13:01.370Z,100259.70
2018-01-23T05:15:31.361Z,100261.62
2018-01-23T05:17:59.769Z,100267.00
2018-01-23T05:20:28.225Z,100270.12
2018-01-23T05:22:56.634Z,100277.91
2018-01-23T05:25:25.062Z,100286.58
2018-01-23T05:27:53.508Z,100287.23
2018-01-23T05:30:21.941Z,100295.69
2018-01-23T05:32:50.376Z,100296.23
2018-01-23T05:35:18.840Z,100292.91
2018-01-23T05:37:47.261Z,100301.45
2018-01-23T05:40:15.675Z,100300.50
2018-01-23T05:42:44.141Z,100297.30
2018-01-23T05:45:12.570Z,100300.03
2018-01-23T05:47:41.055Z,100306.80
2018-01-23T05:50:09.515Z,100308.41
2018-01-23T05:52:37.929Z,100308.91
2018-01-23T05:55:06.360Z,100313.13
2018-01-23T05:57:34.838Z,100319.19
2018-01-23T06:00:03.278Z,100320.60
2018-01-23T06:02:31.693Z,100322.95
2018-01-23T06:05:00.137Z,100331.16
2018-01-23T06:07:28.573Z,100334.28
2018-01-23T06:09:56.973Z,100338.67
2018-01-23T06:12:25.425Z,100335.02
2018-01-23T06:14:54.186Z,100335.44
2018-01-23T06:17:22.598Z,100337.17
2018-01-23T06:19:51.073Z,100338.21
2018-01-23T06:22:19.498Z,100346.17
2018-01-23T06:24:47.903Z,100349.28
2018-01-23T06:27:16.346Z,100346.09
2018-01-23T06:29:44.764Z,100350.02
2018-01-23T06:32:13.172Z,100350.36
2018-01-23T06:34:41.716Z,100351.34
2018-01-23T06:37:10.117Z,100364.20
2018-01-23T06:39:38.534Z,100362.30
2018-01-23T06:42:06.985Z,100363.78
2018-01-23T06:44:35.421Z,100371.79
2018-01-23T06:47:03.858Z,100369.09
2018-01-23T06:49:32.300Z,100370.09
2018-01-23T06:52:00.733Z,100371.83
2018-01-23T06:54:29.153Z,100376.19
2018-01-23T06:56:57.625Z,100381.74
2018-01-23T06:59:26.063Z,100396.75
2018-01-23T07:01:54.466Z,100395.66
2018-01-23T07:04:22.918Z,100401.47
2018-01-23T07:06:51.365Z,100404.95
2018-01-23T07:09:19.786Z,100410.42
2018-01-23T07:11:48.225Z,100414.53
2018-01-23T07:14:16.630Z,100411.42
2018-01-23T07:16:45.037Z,100418.52
2018-01-23T07:19:13.481Z,100428.66
2018-01-23T07:21:41.908Z,100426.56
2018-01-23T07:24:10.341Z,100431.73
2018-01-23T07:26:38.950Z,100427.50
2018-01-23T07:29:07.369Z,100428.25
2018-01-23T07:31:35.794Z,100436.78
2018-01-23T07:34:04.267Z,100442.47
2018-01-23T07:36:32.665Z,100443.80
2018-01-23T07:39:01.093Z,100449.52
2018-01-23T07:41:29.545Z,100450.96
2018-01-23T07:43:57.958Z,100453.05
2018-01-23T07:46:26.417Z,100449.77
2018-01-23T07:48:54.918Z,100455.78
2018-01-23T07:51:23.330Z,100467.73
2018-01-23T07:53:51.756Z,100468.35
2018-01-23T07:56:20.223Z,100464.25
2018-01-23T07:58:48.640Z,100467.17
2018-01-23T08:01:17.058Z,100470.86
2018-01-23T08:03:45.507Z,100471.64
2018-01-23T08:06:13.905Z,100475.75
2018-01-23T08:08:42.324Z,100475.25
2018-01-23T08:11:10.774Z,100476.70
2018-01-23T08:13:39.169Z,100479.28
2018-01-23T08:16:07.591Z,100481.20
2018-01-23T08:18:36.058Z,100487.05
2018-01-23T08:21:04.465Z,100484.11
2018-01-23T08:23:32.867Z,100492.61
2018-01-23T08:26:01.963Z,100494.05
2018-01-23T08:28:30.372Z,100493.31
2018-01-23T08:30:58.816Z,100498.28
2018-01-23T08:33:27.619Z,100495.08
2018-01-23T08:35:56.049Z,100498.82
2018-01-23T08:38:24.458Z,100492.24
2018-01-23T08:40:52.944Z,100493.77
2018-01-23T08:43:21.382Z,100492.70
2018-01-23T08:45:49.810Z,100494.44
2018-01-23T08:48:18.261Z,100497.94
2018-01-23T08:50:46.670Z,100497.02
2018-01-23T08:53:15.120Z,100504.11
2018-01-23T08:55:43.597Z,100502.45
2018-01-23T08:58:12.038Z,100508.63
2018-01-23T09:00:40.466Z,100509.72
2018-01-23T09:03:08.929Z,100510.67
2018-01-23T09:05:37.339Z,100515.39
2018-01-23T09:08:05.773Z,100513.62
2018-01-23T09:10:34.224Z,100515.07
2018-01-23T09:13:02.673Z,100517.55
2018-01-23T09:15:31.094Z,100518.72
2018-01-23T09:17:59.550Z,100517.52
2018-01-23T09:20:27.945Z,100522.46
2018-01-23T09:22:56.384Z,100530.13
2018-01-23T09:25:24.837Z,100532.67
2018-01-23T09:27:53.303Z,100538.36
2018-01-23T09:30:21.742Z,100535.95
2018-01-23T09:32:50.208Z,100535.41
2018-01-23T09:35:18.645Z,100540.31
2018-01-23T09:37:47.080Z,100539.48
2018-01-23T09:40:15.525Z,100538.06
2018-01-23T09:42:43.945Z,100544.08
2018-01-23T09:45:12.358Z,100549.44
2018-01-23T09:47:40.831Z,100548.78
2018-01-23T09:50:09.232Z,100548.69
2018-01-23T09:52:37.632Z,100554.66
2018-01-23T09:55:06.099Z,100555.30
2018-01-23T09:57:34.530Z,100552.77
2018-01-23T10:00:02.929Z,100560.06
2018-01-23T10:02:31.413Z,100558.48
2018-01-23T10:04:59.834Z,100556.16
2018-01-23T10:07:28.261Z,100559.16
2018-01-23T10:09:56.729Z,100557.30
2018-01-23T10:12:25.137Z,100551.94
2018-01-23T10:14:53.561Z,100557.33
2018-01-23T10:17:22.010Z,100555.09
2018-01-23T10:19:50.458Z,100556.78
2018-01-23T10:22:18.912Z,100552.42
2018-01-23T10:24:47.391Z,100559.98
2018-01-23T10:27:15.806Z,100556.56
2018-01-23T10:29:44.246Z,100560.19
2018-01-23T10:32:12.743Z,100562.84
2018-01-23T10:34:41.190Z,100560.72
2018-01-23T10:37:09.595Z,100560.80
2018-01-23T10:39:38.046Z,100565.20
2018-01-23T10:42:06.468Z,100563.75
2018-01-23T10:44:34.864Z,100559.83
2018-01-23T10:47:03.313Z,100565.87
2018-01-23T10:49:31.737Z,100562.14
2018-01-23T10:52:00.181Z,100569.98
2018-01-23T10:54:28.655Z,100558.37
2018-01-23T10:56:57.066Z,100556.94
2018-01-23T10:59:25.486Z,100562.24
2018-01-23T11:01:53.967Z,100564.27
2018-01-23T11:04:22.421Z,100568.17
2018-01-23T11:06:50.847Z,100565.80
2018-01-23T11:09:19.310Z,100563.93
2018-01-23T11:11:47.728Z,100554.70
2018-01-23T11:14:16.134Z,100561.16
2018-01-23T11:16:44.590Z,100556.98
2018-01-23T11:19:13.013Z,100559.35
2018-01-23T11:21:41.419Z,100560.36
2018-01-23T11:24:09.851Z,100569.19
2018-01-23T11:26:38.268Z,100559.34
2018-01-23T11:29:06.685Z,100559.77
2018-01-23T11:31:35.149Z,100561.09
2018-01-23T11:34:03.587Z,100562.71
2018-01-23T11:36:31.995Z,100548.23
2018-01-23T11:39:00.485Z,100553.22
2018-01-23T11:41:28.922Z,100550.30
2018-01-23T11:43:57.339Z,100552.85
2018-01-23T11:46:25.800Z,100557.16
2018-01-23T11:48:54.237Z,100551.39
2018-01-23T11:51:22.694Z,100549.53
2018-01-23T11:53:51.174Z,100551.75
2018-01-23T11:56:19.668Z,100547.48
2018-01-23T11:58:48.097Z,100542.56
2018-01-23T12:01:16.554Z,100536.20
2018-01-23T12:03:44.973Z,100536.62
2018-01-23T12:06:13.402Z,100535.70
2018-01-23T12:08:41.887Z,100535.98
2018-01-23T12:11:10.292Z,100534.19
2018-01-23T12:13:38.688Z,100531.61
2018-01-23T12:16:07.140Z,100529.44
2018-01-23T12:18:35.570Z,100519.91
2018-01-23T12:21:04.025Z,100518.66
2018-01-23T12:23:32.505Z,100521.06
2018-01-23T12:26:00.898Z,100515.84
2018-01-23T12:28:29.290Z,100505.73
2018-01-23T12:30:57.746Z,100512.42
2018-01-23T12:33:26.161Z,100504.48
2018-01-23T12:35:54.613Z,100506.83
2018-01-23T12:38:23.267Z,100498.14
2018-01-23T12:40:51.678Z,100501.52
2018-01-23T12:43:20.073Z,100506.56
2018-01-23T12:45:48.557Z,100500.39
2018-01-23T12:48:16.947Z,100494.23
2018-01-23T12:50:45.355Z,100506.50
2018-01-23T12:53:13.827Z,100509.86
2018-01-23T12:55:42.238Z,100510.67
2018-01-23T12:58:10.674Z,100509.55
2018-01-23T13:00:39.133Z,100512.99
2018-01-23T13:03:07.546Z,100513.55
2018-01-23T13:05:35.968Z,100517.30
2018-01-23T13:08:04.589Z,100521.53
2018-01-23T13:10:33.009Z,100521.81
2018-01-23T13:13:01.422Z,100512.68
2018-01-23T13:15:29.864Z,100510.23
2018-01-23T13:17:58.270Z,100509.62
2018-01-23T13:20:26.681Z,100515.30
2018-01-23T13:22:55.146Z,100511.91
2018-01-23T13:25:23.573Z,100500.16
2018-01-23T13:27:51.986Z,100496.84
2018-01-23T13:30:20.440Z,100489.98
2018-01-23T13:32:48.866Z,100480.92
2018-01-23T13:35:17.292Z,100491.02
2018-01-23T13:37:45.766Z,100481.53
2018-01-23T13:40:14.192Z,100484.34
2018-01-23T13:42:42.619Z,100479.41
2018-01-23T13:45:11.087Z,100483.64
2018-01-23T13:47:39.502Z,100480.38
2018-01-23T13:50:07.914Z,100479.15
2018-01-23T13:52:36.395Z,100476.75
2018-01-23T13:55:04.814Z,100476.86
2018-01-23T13:57:33.222Z,100479.15
2018-01-23T14:00:01.657Z,100481.37
2018-01-23T14:02:30.071Z,100481.86
2018-01-23T14:04:58.480Z,100480.81
2018-01-23T14:07:26.926Z,100472.62
2018-01-23T14:09:55.342Z,100479.36
2018-01-23T14:12:23.783Z,100466.78
2018-01-23T14:14:52.258Z,100472.86
2018-01-23T14:17:21.729Z,100473.77
2018-01-23T14:19:50.133Z,100474.72
2018-01-23T14:22:18.611Z,100473.45
2018-01-23T14:24:47.044Z,100463.36
2018-01-23T14:27:15.484Z,100460.70
2018-01-23T14:29:43.950Z,100463.97
2018-01-23T14:32:12.391Z,100468.63
2018-01-23T14:34:40.833Z,100464.06
2018-01-23T14:37:09.330Z,100459.16
2018-01-23T14:39:37.747Z,100460.47
2018-01-23T14:42:06.184Z,100451.63
2018-01-23T14:44:34.654Z,100445.48
2018-01-23T14:47:03.063Z,100443.38
2018-01-23T14:49:31.445Z,100437.77
2018-01-23T14:51:59.897Z,100433.96
2018-01-23T14:54:28.290Z,100438.97
2018-01-23T14:56:56.694Z,100436.33
2018-01-23T14:59:25.160Z,100430.13
2018-01-23T15:01:53.589Z,100437.06
2018-01-23T15:04:21.997Z,100420.73
2018-01-23T15:06:50.447Z,100424.09
2018-01-23T15:09:18.881Z,100429.22
2018-01-23T15:11:47.344Z,100429.96
2018-01-23T15:14:15.802Z,100431.21
2018-01-23T15:16:44.212Z,100430.77
2018-01-23T15:19:12.617Z,100436.55
2018-01-23T15:21:41.061Z,100432.58
2018-01-23T15:24:09.464Z,100424.10
2018-01-23T15:26:37.878Z,100416.55
2018-01-23T15:29:06.328Z,100418.00
2018-01-23T15:31:34.754Z,100412.22
2018-01-23T15:34:03.212Z,100412.45
2018-01-23T15:36:31.690Z,100415.88
2018-01-23T15:39:00.114Z,100414.27
2018-01-23T15:41:28.526Z,100411.09
2018-01-23T15:43:56.973Z,100413.51
2018-01-23T15:46:25.423Z,100412.64
2018-01-23T15:48:53.822Z,100406.23
2018-01-23T15:51:22.270Z,100405.56
2018-01-23T15:53:50.753Z,100402.66
2018-01-23T15:56:19.174Z,100401.11
2018-01-23T15:58:47.629Z,100407.16
2018-01-23T16:01:16.023Z,100400.13
2018-01-23T16:03:44.685Z,100400.59
2018-01-23T16:06:13.178Z,100396.42
2018-01-23T16:08:41.631Z,100400.65
2018-01-23T16:11:10.043Z,100394.18
2018-01-23T16:13:38.709Z,100403.41
2018-01-23T16:16:07.122Z,100399.32
2018-01-23T16:18:35.532Z,100406.30
2018-01-23T16:21:03.981Z,100402.77
2018-01-23T16:23:32.413Z,100399.35
2018-01-23T16:26:00.818Z,100410.14
2018-01-23T16:28:29.248Z,100395.75
2018-01-23T16:30:57.678Z,100397.73
2018-01-23T16:33:26.088Z,100385.30
2018-01-23T16:35:54.604Z,100384.30
2018-01-23T16:38:23.001Z,100385.68
2018-01-23T16:40:51.425Z,100385.73
2018-01-23T16:43:19.864Z,100383.83
2018-01-23T16:45:48.675Z,100375.28
2018-01-23T16:48:17.102Z,100374.92
2018-01-23T16:50:45.550Z,100382.78
2018-01-23T16:53:13.981Z,100375.34
2018-01-23T16:55:42.395Z,100362.56
2018-01-23T16:58:10.883Z,100373.79
2018-01-23T17:00:39.285Z,100374.81
2018-01-23T17:03:07.694Z,100374.05
2018-01-23T17:05:36.140Z,100372.75
2018-01-23T17:08:04.554Z,100370.73
2018-01-23T17:10:32.939Z,100362.50
2018-01-23T17:13:01.394Z,100362.02
2018-01-23T17:15:29.835Z,100361.83
2018-01-23T17:17:58.237Z,100358.53
2018-01-23T17:20:26.684Z,100353.52
2018-01-23T17:22:55.086Z,100354.16
2018-01-23T17:25:23.527Z,100343.55
2018-01-23T17:27:52.922Z,100341.68
2018-01-23T17:30:21.366Z,100342.47
2018-01-23T17:32:49.775Z,100339.80
2018-01-23T17:35:18.222Z,100334.30
2018-01-23T17:37:46.618Z,100338.52
2018-01-23T17:40:15.032Z,100336.11
2018-01-23T17:42:43.481Z,100331.77
2018-01-23T17:45:11.895Z,100324.22
2018-01-23T17:47:40.317Z,100322.59
2018-01-23T17:50:08.833Z,100316.98
2018-01-23T17:52:37.229Z,100318.80
2018-01-23T17:55:05.623Z,100317.25
2018-01-23T17:57:34.079Z,100305.69
2018-01-23T18:00:02.506Z,100306.42
2018-01-23T18:02:30.923Z,100305.08
2018-01-23T18:04:59.398Z,100304.59
2018-01-23T18:07:27.796Z,100307.31
2018-01-23T18:09:56.186Z,100300.25
2018-01-23T18:12:24.876Z,100291.02
2018-01-23T18:14:53.293Z,100296.19
2018-01-23T18:17:21.714Z,100294.08
2018-01-23T18:19:50.143Z,100306.21
2018-01-23T18:22:18.535Z,100299.11
2018-01-23T18:24:46.966Z,100290.70
2018-01-23T18:27:15.413Z,100283.86
2018-01-23T18:29:43.821Z,100283.73
2018-01-23T18:32:12.229Z,100286.51
2018-01-23T18:34:40.861Z,100280.05
2018-01-23T18:37:09.278Z,100287.11
2018-01-23T18:39:37.702Z,100291.09
2018-01-23T18:42:06.140Z,100293.16
2018-01-23T18:44:34.553Z,100286.03
2018-01-23T18:47:02.954Z,100299.23
2018-01-23T18:49:31.417Z,100291.45
2018-01-23T18:51:59.850Z,100283.71
2018-01-23T18:54:28.261Z,100282.45
2018-01-23T18:56:56.835Z,100288.91
2018-01-23T18:59:25.256Z,100279.07
2018-01-23T19:01:53.645Z,100277.73
2018-01-23T19:04:22.101Z,100277.92
2018-01-23T19:06:50.501Z,100272.97
2018-01-23T19:09:18.886Z,100268.44
2018-01-23T19:11:47.313Z,100265.13
2018-01-23T19:14:15.712Z,100259.40
2018-01-23T19:16:44.122Z,100252.27
2018-01-23T19:19:12.562Z,100254.21
2018-01-23T19:21:40.988Z,100250.72
2018-01-23T19:24:09.410Z,100238.82
2018-01-23T19:26:37.853Z,100236.30
2018-01-23T19:29:06.287Z,100221.19
2018-01-23T19:31:34.682Z,100221.12
2018-01-23T19:34:03.158Z,100227.41
2018-01-23T19:36:31.553Z,100226.34
2018-01-23T19:38:59.942Z,100214.45
2018-01-23T19:41:28.407Z,100212.75
2018-01-23T19:43:56.806Z,100203.45
2018-01-23T19:46:25.219Z,100201.78
2018-01-23T19:48:53.821Z,100213.69
2018-01-23T19:51:22.225Z,100209.98
2018-01-23T19:53:50.608Z,100201.67
2018-01-23T19:56:19.038Z,100195.50
2018-01-23T19:58:47.457Z,100197.63
2018-01-23T20:01:15.858Z,100184.05
2018-01-23T20:03:44.310Z,100185.66
2018-01-23T20:06:12.701Z,100191.99
2018-01-23T20:08:41.101Z,100184.28
2018-01-23T20:11:09.546Z,100172.52
2018-01-23T20:13:37.938Z,100178.36
2018-01-23T20:16:06.346Z,100188.20
2018-01-23T20:18:34.801Z,100179.45
2018-01-23T20:21:03.230Z,100198.03
2018-01-23T20:23:31.655Z,100187.44
2018-01-23T20:26:00.466Z,100199.07
2018-01-23T20:28:28.901Z,100191.03
2018-01-23T20:30:57.318Z,100193.58
2018-01-23T20:33:25.778Z,100179.58
2018-01-23T20:35:54.177Z,100174.40
2018-01-23T20:38:22.582Z,100180.67
2018-01-23T20:40:51.045Z,100170.75
2018-01-23T20:43:19.464Z,100170.98
2018-01-23T20:45:47.875Z,100170.75
2018-01-23T20:48:16.333Z,100158.56
2018-01-23T20:50:44.750Z,100162.81
2018-01-23T20:53:13.159Z,100164.63
2018-01-23T20:55:41.618Z,100164.24
2018-01-23T20:58:10.035Z,100163.22
2018-01-23T21:00:38.452Z,100170.09
2018-01-23T21:03:06.909Z,100177.13
2018-01-23T21:05:35.322Z,100197.94
2018-01-23T21:08:03.788Z,100194.41
2018-01-23T21:10:32.226Z,100184.08
2018-01-23T21:13:00.638Z,100193.51
2018-01-23T21:15:29.074Z,100187.70
2018-01-23T21:17:57.505Z,100172.16
2018-01-23T21:20:26.924Z,100183.30
2018-01-23T21:22:55.366Z,100188.17
2018-01-23T21:25:23.816Z,100184.42
2018-01-23T21:27:52.254Z,100194.05
2018-01-23T21:30:20.686Z,100191.22
2018-01-23T21:32:49.137Z,100203.67
2018-01-23T21:35:17.562Z,100207.67
2018-01-23T21:37:46.002Z,100195.80
2018-01-23T21:40:14.467Z,100189.21
2018-01-23T21:42:43.193Z,100201.00
2018-01-23T21:45:11.618Z,100202.47
2018-01-23T21:47:40.082Z,100210.57
2018-01-23T21:50:08.482Z,100212.02
2018-01-23T21:52:36.905Z,100191.70
2018-01-23T21:55:05.357Z,100213.16
2018-01-23T21:57:33.772Z,100211.47
2018-01-23T22:00:02.215Z,100193.47
2018-01-23T22:02:30.686Z,100196.13
2018-01-23T22:04:59.093Z,100195.80
2018-01-23T22:07:27.497Z,100199.59
2018-01-23T22:09:55.933Z,100195.05
2018-01-23T22:12:24.358Z,100185.61
2018-01-23T22:14:52.773Z,100178.70
2018-01-23T22:17:21.209Z,100191.80
2018-01-23T22:19:49.607Z,100185.76
2018-01-23T22:22:18.020Z,100175.45
2018-01-23T22:24:46.463Z,100180.77
2018-01-23T22:27:14.857Z,100175.95
2018-01-23T22:29:43.245Z,100168.94
2018-01-23T22:32:11.721Z,100167.75
2018-01-23T22:34:40.138Z,100167.57
2018-01-23T22:37:08.538Z,100160.33
2018-01-23T22:39:36.992Z,100157.41
2018-01-23T22:42:05.395Z,100155.94
2018-01-23T22:44:33.810Z,100150.02
2018-01-23T22:47:02.230Z,100169.82
2018-01-23T22:49:30.635Z,100160.75
2018-01-23T22:51:59.049Z,100168.63
2018-01-23T22:54:27.525Z,100170.20
2018-01-23T22:56:55.922Z,100174.13
2018-01-23T22:59:24.330Z,100181.74
2018-01-23T23:01:52.778Z,100169.86
2018-01-23T23:04:21.177Z,100172.34
2018-01-23T23:06:49.568Z,100169.73
2018-01-23T23:09:18.005Z,100177.11
2018-01-23T23:11:46.425Z,100176.70
2018-01-23T23:14:14.815Z,100172.77
2018-01-23T23:16:43.293Z,100175.19
2018-01-23T23:19:11.718Z,100168.63
2018-01-23T23:21:40.121Z,100179.18
2018-01-23T23:24:08.839Z,100178.72
2018-01-23T23:26:37.234Z,100177.25
2018-01-23T23:29:05.655Z,100163.45
2018-01-23T23:31:34.093Z,100174.60
2018-01-23T23:34:02.510Z,100167.22
2018-01-23T23:36:30.918Z,100163.22
2018-01-23T23:38:59.345Z,100173.09
2018-01-23T23:41:27.733Z,100163.69
2018-01-23T23:43:56.161Z,100170.15
2018-01-23T23:46:24.614Z,100155.89
2018-01-23T23:48:53.033Z,100169.50
2018-01-23T23:51:21.443Z,100178.90
2018-01-23T23:53:49.865Z,100176.83
2018-01-23T23:56:18.255Z,100176.10
2018-01-23T23:58:46.658Z,100161.98
